sensor_id;sensor_type;location;lat;lon;timestamp;pressure;altitude;pressure_sealevel;temperature;humidity
53270;BME280;39159;45.634;9.420;2024-02-28T00:00:47;98440.63;;;7.87;100.00
53270;BME280;39159;45.634;9.420;2024-02-28T00:03:13;98445.28;;;7.87;100.00
53270;BME280;39159;45.634;9.420;2024-02-28T00:05:38;98454.00;;;7.84;100.00
53270;BME280;39159;45.634;9.420;2024-02-28T00:08:04;98453.59;;;7.91;100.00
53270;BME280;39159;45.634;9.420;2024-02-28T00:10:29;98455.72;;;7.94;100.00
53270;BME280;39159;45.634;9.420;2024-02-28T00:12:55;98453.81;;;7.94;100.00
53270;BME280;39159;45.634;9.420;2024-02-28T00:15:20;98457.63;;;7.93;100.00
53270;BME280;39159;45.634;9.420;2024-02-28T00:17:45;98455.22;;;7.92;100.00
53270;BME280;39159;45.634;9.420;2024-02-28T00:20:11;98455.81;;;7.88;100.00
53270;BME280;39159;45.634;9.420;2024-02-28T00:22:38;98446.38;;;7.86;100.00
53270;BME280;39159;45.634;9.420;2024-02-28T00:25:03;98447.28;;;7.81;100.00
53270;BME280;39159;45.634;9.420;2024-02-28T00:27:32;98445.69;;;7.80;100.00
53270;BME280;39159;45.634;9.420;2024-02-28T00:29:57;98449.28;;;7.76;100.00
53270;BME280;39159;45.634;9.420;2024-02-28T00:32:22;98454.69;;;7.76;100.00
53270;BME280;39159;45.634;9.420;2024-02-28T00:34:48;98467.50;;;7.75;100.00
53270;BME280;39159;45.634;9.420;2024-02-28T00:37:13;98465.56;;;7.76;100.00
53270;BME280;39159;45.634;9.420;2024-02-28T00:39:38;98471.50;;;7.78;100.00
53270;BME280;39159;45.634;9.420;2024-02-28T00:42:04;98472.34;;;7.78;100.00
53270;BME280;39159;45.634;9.420;2024-02-28T00:44:29;98471.72;;;7.81;100.00
53270;BME280;39159;45.634;9.420;2024-02-28T00:46:55;98489.03;;;7.85;100.00
53270;BME280;39159;45.634;9.420;2024-02-28T00:49:20;98494.19;;;7.87;100.00
53270;BME280;39159;45.634;9.420;2024-02-28T00:51:46;98503.13;;;7.87;100.00
53270;BME280;39159;45.634;9.420;2024-02-28T00:54:11;98510.97;;;7.89;100.00
53270;BME280;39159;45.634;9.420;2024-02-28T00:56:36;98520.63;;;7.95;100.00
53270;BME280;39159;45.634;9.420;2024-02-28T00:59:02;98525.94;;;8.00;100.00
53270;BME280;39159;45.634;9.420;2024-02-28T01:01:28;98533.53;;;8.03;100.00
53270;BME280;39159;45.634;9.420;2024-02-28T01:03:53;98542.97;;;8.06;100.00
53270;BME280;39159;45.634;9.420;2024-02-28T01:06:18;98539.16;;;8.07;100.00
53270;BME280;39159;45.634;9.420;2024-02-28T01:08:44;98534.81;;;8.06;100.00
53270;BME280;39159;45.634;9.420;2024-02-28T01:11:10;98527.28;;;8.03;100.00
53270;BME280;39159;45.634;9.420;2024-02-28T01:13:35;98536.53;;;8.02;100.00
53270;BME280;39159;45.634;9.420;2024-02-28T01:16:01;98530.59;;;8.00;100.00
53270;BME280;39159;45.634;9.420;2024-02-28T01:18:26;98523.84;;;7.97;100.00
53270;BME280;39159;45.634;9.420;2024-02-28T01:20:55;98522.44;;;8.00;100.00
53270;BME280;39159;45.634;9.420;2024-02-28T01:23:21;98527.88;;;8.00;100.00
53270;BME280;39159;45.634;9.420;2024-02-28T01:25:46;98530.59;;;8.00;100.00
53270;BME280;39159;45.634;9.420;2024-02-28T01:28:12;98525.88;;;7.92;100.00
53270;BME280;39159;45.634;9.420;2024-02-28T01:30:37;98516.00;;;7.82;100.00
53270;BME280;39159;45.634;9.420;2024-02-28T01:33:02;98520.00;;;7.84;100.00
53270;BME280;39159;45.634;9.420;2024-02-28T01:35:28;98519.72;;;7.86;100.00
53270;BME280;39159;45.634;9.420;2024-02-28T01:37:53;98521.34;;;7.87;100.00
53270;BME280;39159;45.634;9.420;2024-02-28T01:40:19;98534.09;;;7.86;100.00
53270;BME280;39159;45.634;9.420;2024-02-28T01:42:44;98529.00;;;7.85;100.00
53270;BME280;39159;45.634;9.420;2024-02-28T01:45:13;98530.19;;;7.79;100.00
53270;BME280;39159;45.634;9.420;2024-02-28T01:47:40;98527.75;;;7.77;100.00
53270;BME280;39159;45.634;9.420;2024-02-28T01:50:07;98524.53;;;7.75;100.00
53270;BME280;39159;45.634;9.420;2024-02-28T01:52:33;98516.69;;;7.74;100.00
53270;BME280;39159;45.634;9.420;2024-02-28T01:54:59;98526.22;;;7.71;100.00
53270;BME280;39159;45.634;9.420;2024-02-28T01:57:24;98518.09;;;7.71;100.00
53270;BME280;39159;45.634;9.420;2024-02-28T01:59:51;98519.72;;;7.72;100.00
53270;BME280;39159;45.634;9.420;2024-02-28T02:02:18;98513.47;;;7.72;100.00
53270;BME280;39159;45.634;9.420;2024-02-28T02:04:43;98515.06;;;7.73;100.00
53270;BME280;39159;45.634;9.420;2024-02-28T02:07:08;98520.50;;;7.73;100.00
53270;BME280;39159;45.634;9.420;2024-02-28T02:09:34;98523.84;;;7.70;100.00
53270;BME280;39159;45.634;9.420;2024-02-28T02:12:00;98523.00;;;7.69;100.00
53270;BME280;39159;45.634;9.420;2024-02-28T02:14:25;98531.38;;;7.73;100.00
53270;BME280;39159;45.634;9.420;2024-02-28T02:16:51;98532.16;;;7.73;100.00
53270;BME280;39159;45.634;9.420;2024-02-28T02:19:16;98536.81;;;7.73;100.00
53270;BME280;39159;45.634;9.420;2024-02-28T02:21:49;98538.44;;;7.74;100.00
53270;BME280;39159;45.634;9.420;2024-02-28T02:24:16;98534.31;;;7.76;100.00
53270;BME280;39159;45.634;9.420;2024-02-28T02:26:41;98542.97;;;7.78;100.00
53270;BME280;39159;45.634;9.420;2024-02-28T02:29:09;98549.38;;;7.82;100.00
53270;BME280;39159;45.634;9.420;2024-02-28T02:31:34;98543.16;;;7.82;100.00
53270;BME280;39159;45.634;9.420;2024-02-28T02:34:00;98548.81;;;7.85;100.00
53270;BME280;39159;45.634;9.420;2024-02-28T02:36:25;98547.50;;;7.83;100.00
53270;BME280;39159;45.634;9.420;2024-02-28T02:38:50;98543.16;;;7.82;100.00
53270;BME280;39159;45.634;9.420;2024-02-28T02:41:16;98549.59;;;7.86;100.00
53270;BME280;39159;45.634;9.420;2024-02-28T02:43:41;98553.13;;;7.86;100.00
53270;BME280;39159;45.634;9.420;2024-02-28T02:46:06;98560.19;;;7.87;100.00
53270;BME280;39159;45.634;9.420;2024-02-28T02:48:32;98552.81;;;7.88;100.00
53270;BME280;39159;45.634;9.420;2024-02-28T02:50:58;98554.81;;;7.82;100.00
53270;BME280;39159;45.634;9.420;2024-02-28T02:53:23;98562.50;;;7.80;100.00
53270;BME280;39159;45.634;9.420;2024-02-28T02:55:49;98561.47;;;7.76;100.00
53270;BME280;39159;45.634;9.420;2024-02-28T02:58:14;98564.19;;;7.76;100.00
53270;BME280;39159;45.634;9.420;2024-02-28T03:00:39;98563.69;;;7.74;100.00
53270;BME280;39159;45.634;9.420;2024-02-28T03:03:05;98572.13;;;7.73;100.00
53270;BME280;39159;45.634;9.420;2024-02-28T03:05:31;98577.84;;;7.71;100.00
53270;BME280;39159;45.634;9.420;2024-02-28T03:07:56;98580.56;;;7.71;100.00
53270;BME280;39159;45.634;9.420;2024-02-28T03:10:21;98589.72;;;7.75;100.00
53270;BME280;39159;45.634;9.420;2024-02-28T03:12:47;98585.09;;;7.76;100.00
53270;BME280;39159;45.634;9.420;2024-02-28T03:15:12;98586.72;;;7.77;100.00
53270;BME280;39159;45.634;9.420;2024-02-28T03:17:37;98593.25;;;7.76;100.00
53270;BME280;39159;45.634;9.420;2024-02-28T03:20:03;98588.63;;;7.76;100.00
53270;BME280;39159;45.634;9.420;2024-02-28T03:22:28;98592.44;;;7.75;100.00
53270;BME280;39159;45.634;9.420;2024-02-28T03:24:54;98603.81;;;7.77;100.00
53270;BME280;39159;45.634;9.420;2024-02-28T03:27:19;98606.75;;;7.81;100.00
53270;BME280;39159;45.634;9.420;2024-02-28T03:29:44;98609.16;;;7.82;100.00
53270;BME280;39159;45.634;9.420;2024-02-28T03:32:10;98614.28;;;7.84;100.00
53270;BME280;39159;45.634;9.420;2024-02-28T03:34:36;98619.22;;;7.82;100.00
53270;BME280;39159;45.634;9.420;2024-02-28T03:37:01;98619.22;;;7.82;100.00
53270;BME280;39159;45.634;9.420;2024-02-28T03:39:27;98617.91;;;7.79;100.00
53270;BME280;39159;45.634;9.420;2024-02-28T03:41:52;98613.59;;;7.78;100.00
53270;BME280;39159;45.634;9.420;2024-02-28T03:44:17;98621.75;;;7.78;100.00
53270;BME280;39159;45.634;9.420;2024-02-28T03:46:43;98623.34;;;7.79;100.00
53270;BME280;39159;45.634;9.420;2024-02-28T03:49:08;98624.13;;;7.80;100.00
53270;BME280;39159;45.634;9.420;2024-02-28T03:51:39;98621.44;;;7.80;100.00
53270;BME280;39159;45.634;9.420;2024-02-28T03:54:05;98622.25;;;7.80;100.00
53270;BME280;39159;45.634;9.420;2024-02-28T03:56:31;98622.25;;;7.80;100.00
53270;BME280;39159;45.634;9.420;2024-02-28T03:58:56;98626.06;;;7.79;100.00
53270;BME280;39159;45.634;9.420;2024-02-28T04:01:21;98627.69;;;7.80;100.00
53270;BME280;39159;45.634;9.420;2024-02-28T04:03:47;98627.69;;;7.80;100.00
53270;BME280;39159;45.634;9.420;2024-02-28T04:06:12;98630.09;;;7.82;100.00
53270;BME280;39159;45.634;9.420;2024-02-28T04:08:37;98629.19;;;7.86;100.00
53270;BME280;39159;45.634;9.420;2024-02-28T04:11:03;98636.84;;;7.84;100.00
53270;BME280;39159;45.634;9.420;2024-02-28T04:13:28;98633.59;;;7.82;100.00
53270;BME280;39159;45.634;9.420;2024-02-28T04:15:54;98644.41;;;7.87;100.00
53270;BME280;39159;45.634;9.420;2024-02-28T04:18:19;98643.28;;;7.88;100.00
53270;BME280;39159;45.634;9.420;2024-02-28T04:20:45;98651.16;;;7.90;100.00
53270;BME280;39159;45.634;9.420;2024-02-28T04:23:10;98647.63;;;7.89;100.00
53270;BME280;39159;45.634;9.420;2024-02-28T04:25:35;98651.44;;;7.88;100.00
53270;BME280;39159;45.634;9.420;2024-02-28T04:28:02;98658.00;;;7.87;100.00
53270;BME280;39159;45.634;9.420;2024-02-28T04:30:28;98652.56;;;7.87;100.00
53270;BME280;39159;45.634;9.420;2024-02-28T04:32:53;98659.81;;;7.92;100.00
53270;BME280;39159;45.634;9.420;2024-02-28T04:35:19;98658.78;;;7.88;100.00
53270;BME280;39159;45.634;9.420;2024-02-28T04:37:45;98659.91;;;7.87;100.00
53270;BME280;39159;45.634;9.420;2024-02-28T04:40:11;98659.59;;;7.88;100.00
53270;BME280;39159;45.634;9.420;2024-02-28T04:42:37;98668.34;;;7.85;100.00
53270;BME280;39159;45.634;9.420;2024-02-28T04:45:06;98672.47;;;7.83;100.00
53270;BME280;39159;45.634;9.420;2024-02-28T04:47:31;98678.94;;;7.87;100.00
53270;BME280;39159;45.634;9.420;2024-02-28T04:49:57;98679.50;;;7.84;100.00
53270;BME280;39159;45.634;9.420;2024-02-28T04:52:23;98681.13;;;7.85;100.00
53270;BME280;39159;45.634;9.420;2024-02-28T04:54:50;98682.50;;;7.82;100.00
53270;BME280;39159;45.634;9.420;2024-02-28T04:57:15;98683.25;;;7.88;100.00
53270;BME280;39159;45.634;9.420;2024-02-28T04:59:42;98687.06;;;7.87;100.00
53270;BME280;39159;45.634;9.420;2024-02-28T05:02:08;98698.13;;;7.91;100.00
53270;BME280;39159;45.634;9.420;2024-02-28T05:04:33;98698.66;;;7.93;100.00
53270;BME280;39159;45.634;9.420;2024-02-28T05:06:58;98703.81;;;7.94;100.00
53270;BME280;39159;45.634;9.420;2024-02-28T05:09:24;98707.31;;;7.95;100.00
53270;BME280;39159;45.634;9.420;2024-02-28T05:11:49;98710.25;;;7.98;100.00
53270;BME280;39159;45.634;9.420;2024-02-28T05:14:14;98705.03;;;8.02;100.00
53270;BME280;39159;45.634;9.420;2024-02-28T05:16:40;98707.22;;;8.00;100.00
53270;BME280;39159;45.634;9.420;2024-02-28T05:19:05;98703.69;;;8.18;100.00
53270;BME280;39159;45.634;9.420;2024-02-28T05:21:31;98717.59;;;8.30;100.00
53270;BME280;39159;45.634;9.420;2024-02-28T05:23:56;98721.63;;;8.33;100.00
53270;BME280;39159;45.634;9.420;2024-02-28T05:26:21;98713.97;;;8.35;100.00
53270;BME280;39159;45.634;9.420;2024-02-28T05:28:47;98719.34;;;8.40;100.00
53270;BME280;39159;45.634;9.420;2024-02-28T05:31:26;98716.16;;;8.52;100.00
53270;BME280;39159;45.634;9.420;2024-02-28T05:33:52;98716.16;;;8.52;100.00
53270;BME280;39159;45.634;9.420;2024-02-28T05:36:19;98718.06;;;8.52;100.00
53270;BME280;39159;45.634;9.420;2024-02-28T05:38:45;98721.28;;;8.54;100.00
53270;BME280;39159;45.634;9.420;2024-02-28T05:41:10;98720.81;;;8.52;100.00
53270;BME280;39159;45.634;9.420;2024-02-28T05:43:40;98716.44;;;8.50;100.00
53270;BME280;39159;45.634;9.420;2024-02-28T05:46:05;98723.59;;;8.46;100.00
53270;BME280;39159;45.634;9.420;2024-02-28T05:48:31;98723.00;;;8.49;100.00
53270;BME280;39159;45.634;9.420;2024-02-28T05:50:56;98729.63;;;8.43;100.00
53270;BME280;39159;45.634;9.420;2024-02-28T05:53:21;98721.47;;;8.43;100.00
53270;BME280;39159;45.634;9.420;2024-02-28T05:55:47;98733.50;;;8.37;100.00
53270;BME280;39159;45.634;9.420;2024-02-28T05:58:13;98731.31;;;8.39;100.00
53270;BME280;39159;45.634;9.420;2024-02-28T06:00:38;98729.63;;;8.43;100.00
53270;BME280;39159;45.634;9.420;2024-02-28T06:03:04;98737.28;;;8.41;100.00
53270;BME280;39159;45.634;9.420;2024-02-28T06:05:30;98732.94;;;8.40;100.00
53270;BME280;39159;45.634;9.420;2024-02-28T06:07:55;98731.31;;;8.39;100.00
53270;BME280;39159;45.634;9.420;2024-02-28T06:10:21;98734.81;;;8.40;100.00
53270;BME280;39159;45.634;9.420;2024-02-28T06:12:47;98736.38;;;8.46;100.00
53270;BME280;39159;45.634;9.420;2024-02-28T06:15:12;98742.63;;;8.46;100.00
53270;BME280;39159;45.634;9.420;2024-02-28T06:17:37;98743.03;;;8.54;100.00
53270;BME280;39159;45.634;9.420;2024-02-28T06:20:03;98746.97;;;8.47;100.00
53270;BME280;39159;45.634;9.420;2024-02-28T06:22:28;98752.31;;;8.53;100.00
53270;BME280;39159;45.634;9.420;2024-02-28T06:24:54;98753.91;;;8.54;100.00
53270;BME280;39159;45.634;9.420;2024-02-28T06:27:19;98748.28;;;8.50;100.00
53270;BME280;39159;45.634;9.420;2024-02-28T06:29:44;98761.16;;;8.44;100.00
53270;BME280;39159;45.634;9.420;2024-02-28T06:32:10;98767.41;;;8.45;100.00
53270;BME280;39159;45.634;9.420;2024-02-28T06:34:35;98769.81;;;8.46;100.00
53270;BME280;39159;45.634;9.420;2024-02-28T06:37:00;98772.25;;;8.48;100.00
53270;BME280;39159;45.634;9.420;2024-02-28T06:39:26;98777.09;;;8.51;100.00
53270;BME280;39159;45.634;9.420;2024-02-28T06:41:51;98782.47;;;8.56;100.00
53270;BME280;39159;45.634;9.420;2024-02-28T06:44:20;98793.34;;;8.56;100.00
53270;BME280;39159;45.634;9.420;2024-02-28T06:46:45;98790.63;;;8.56;100.00
53270;BME280;39159;45.634;9.420;2024-02-28T06:49:11;98791.69;;;8.55;100.00
53270;BME280;39159;45.634;9.420;2024-02-28T06:51:37;98792.31;;;8.52;100.00
53270;BME280;39159;45.634;9.420;2024-02-28T06:54:03;98795.84;;;8.53;100.00
53270;BME280;39159;45.634;9.420;2024-02-28T06:56:30;98801.56;;;8.51;100.00
53270;BME280;39159;45.634;9.420;2024-02-28T06:58:55;98804.78;;;8.53;100.00
53270;BME280;39159;45.634;9.420;2024-02-28T07:01:21;98813.03;;;8.48;100.00
53270;BME280;39159;45.634;9.420;2024-02-28T07:03:46;98808.69;;;8.47;100.00
53270;BME280;39159;45.634;9.420;2024-02-28T07:06:11;98811.13;;;8.48;100.00
53270;BME280;39159;45.634;9.420;2024-02-28T07:08:37;98816.47;;;8.54;100.00
53270;BME280;39159;45.634;9.420;2024-02-28T07:11:02;98819.41;;;8.57;100.00
53270;BME280;39159;45.634;9.420;2024-02-28T07:13:28;98827.06;;;8.55;100.00
53270;BME280;39159;45.634;9.420;2024-02-28T07:15:54;98826.25;;;8.55;100.00
53270;BME280;39159;45.634;9.420;2024-02-28T07:18:19;98834.34;;;8.60;100.00
53270;BME280;39159;45.634;9.420;2024-02-28T07:20:45;98829.69;;;8.60;100.00
53270;BME280;39159;45.634;9.420;2024-02-28T07:23:11;98832.13;;;8.62;100.00
53270;BME280;39159;45.634;9.420;2024-02-28T07:25:36;98840.78;;;8.64;100.00
53270;BME280;39159;45.634;9.420;2024-02-28T07:28:02;98846.00;;;8.60;100.00
53270;BME280;39159;45.634;9.420;2024-02-28T07:30:30;98843.91;;;8.57;100.00
53270;BME280;39159;45.634;9.420;2024-02-28T07:32:56;98853.88;;;8.62;100.00
53270;BME280;39159;45.634;9.420;2024-02-28T07:35:21;98848.44;;;8.62;100.00
53270;BME280;39159;45.634;9.420;2024-02-28T07:37:49;98850.66;;;8.60;100.00
53270;BME280;39159;45.634;9.420;2024-02-28T07:40:14;98856.88;;;8.60;100.00
53270;BME280;39159;45.634;9.420;2024-02-28T07:42:39;98858.75;;;8.65;100.00
53270;BME280;39159;45.634;9.420;2024-02-28T07:45:05;98862.19;;;8.70;100.00
53270;BME280;39159;45.634;9.420;2024-02-28T07:47:33;98870.84;;;8.73;100.00
53270;BME280;39159;45.634;9.420;2024-02-28T07:49:59;98868.41;;;8.71;100.00
53270;BME280;39159;45.634;9.420;2024-02-28T07:52:24;98868.22;;;8.67;100.00
53270;BME280;39159;45.634;9.420;2024-02-28T07:54:49;98871.13;;;8.71;100.00
53270;BME280;39159;45.634;9.420;2024-02-28T07:57:15;98874.97;;;8.70;100.00
53270;BME280;39159;45.634;9.420;2024-02-28T07:59:43;98874.69;;;8.71;100.00
53270;BME280;39159;45.634;9.420;2024-02-28T08:02:09;98867.25;;;8.77;100.00
53270;BME280;39159;45.634;9.420;2024-02-28T08:04:38;98868.88;;;8.78;100.00
53270;BME280;39159;45.634;9.420;2024-02-28T08:07:04;98877.50;;;8.80;100.00
53270;BME280;39159;45.634;9.420;2024-02-28T08:09:29;98877.44;;;8.85;100.00
53270;BME280;39159;45.634;9.420;2024-02-28T08:11:54;98876.56;;;8.90;100.00
53270;BME280;39159;45.634;9.420;2024-02-28T08:14:20;98877.56;;;8.94;100.00
53270;BME280;39159;45.634;9.420;2024-02-28T08:16:46;98881.22;;;9.03;100.00
53270;BME280;39159;45.634;9.420;2024-02-28T08:19:11;98879.31;;;9.04;100.00
53270;BME280;39159;45.634;9.420;2024-02-28T08:21:37;98878.78;;;9.02;100.00
53270;BME280;39159;45.634;9.420;2024-02-28T08:24:02;98882.53;;;9.06;100.00
53270;BME280;39159;45.634;9.420;2024-02-28T08:26:31;98890.41;;;9.07;100.00
53270;BME280;39159;45.634;9.420;2024-02-28T08:28:56;98881.84;;;9.14;100.00
53270;BME280;39159;45.634;9.420;2024-02-28T08:31:22;98889.13;;;9.19;100.00
53270;BME280;39159;45.634;9.420;2024-02-28T08:33:48;98895.88;;;9.21;100.00
53270;BME280;39159;45.634;9.420;2024-02-28T08:36:13;98893.66;;;9.23;100.00
53270;BME280;39159;45.634;9.420;2024-02-28T08:38:39;98893.25;;;9.30;100.00
53270;BME280;39159;45.634;9.420;2024-02-28T08:41:05;98891.63;;;9.29;100.00
53270;BME280;39159;45.634;9.420;2024-02-28T08:43:30;98905.69;;;9.36;100.00
53270;BME280;39159;45.634;9.420;2024-02-28T08:45:55;98899.34;;;9.41;100.00
53270;BME280;39159;45.634;9.420;2024-02-28T08:48:21;98906.09;;;9.43;100.00
53270;BME280;39159;45.634;9.420;2024-02-28T08:50:48;98908.41;;;9.50;100.00
53270;BME280;39159;45.634;9.420;2024-02-28T08:53:13;98911.66;;;9.52;100.00
53270;BME280;39159;45.634;9.420;2024-02-28T08:55:38;98912.34;;;9.58;100.00
53270;BME280;39159;45.634;9.420;2024-02-28T08:58:04;98919.81;;;9.66;100.00
53270;BME280;39159;45.634;9.420;2024-02-28T09:00:30;98922.84;;;9.64;100.00
53270;BME280;39159;45.634;9.420;2024-02-28T09:02:55;98927.47;;;9.78;100.00
53270;BME280;39159;45.634;9.420;2024-02-28T09:05:21;98922.63;;;9.88;100.00
53270;BME280;39159;45.634;9.420;2024-02-28T09:07:46;98927.47;;;10.05;100.00
53270;BME280;39159;45.634;9.420;2024-02-28T09:10:16;98925.44;;;10.11;100.00
53270;BME280;39159;45.634;9.420;2024-02-28T09:12:46;98920.69;;;10.30;100.00
53270;BME280;39159;45.634;9.420;2024-02-28T09:15:11;98920.97;;;10.43;100.00
53270;BME280;39159;45.634;9.420;2024-02-28T09:17:37;98931.94;;;10.51;100.00
53270;BME280;39159;45.634;9.420;2024-02-28T09:20:02;98936.53;;;10.65;100.00
53270;BME280;39159;45.634;9.420;2024-02-28T09:22:29;98929.69;;;10.67;100.00
53270;BME280;39159;45.634;9.420;2024-02-28T09:24:54;98931.34;;;10.77;100.00
53270;BME280;39159;45.634;9.420;2024-02-28T09:27:20;98928.84;;;10.81;100.00
53270;BME280;39159;45.634;9.420;2024-02-28T09:29:45;98930.94;;;10.84;100.00
53270;BME280;39159;45.634;9.420;2024-02-28T09:32:11;98935.16;;;10.90;100.00
53270;BME280;39159;45.634;9.420;2024-02-28T09:34:37;98939.25;;;11.01;100.00
53270;BME280;39159;45.634;9.420;2024-02-28T09:37:02;98944.31;;;11.16;100.00
53270;BME280;39159;45.634;9.420;2024-02-28T09:39:29;98944.31;;;11.16;100.00
53270;BME280;39159;45.634;9.420;2024-02-28T09:41:54;98944.09;;;11.35;100.00
53270;BME280;39159;45.634;9.420;2024-02-28T09:44:21;98947.91;;;11.57;100.00
53270;BME280;39159;45.634;9.420;2024-02-28T09:46:47;98948.13;;;11.69;100.00
53270;BME280;39159;45.634;9.420;2024-02-28T09:49:14;98951.03;;;11.73;100.00
53270;BME280;39159;45.634;9.420;2024-02-28T09:51:41;98947.31;;;12.00;100.00
53270;BME280;39159;45.634;9.420;2024-02-28T09:54:06;98948.16;;;12.27;100.00
53270;BME280;39159;45.634;9.420;2024-02-28T09:56:32;98953.69;;;12.61;100.00
53270;BME280;39159;45.634;9.420;2024-02-28T09:58:59;98947.88;;;12.80;100.00
53270;BME280;39159;45.634;9.420;2024-02-28T10:01:25;98951.09;;;13.17;100.00
53270;BME280;39159;45.634;9.420;2024-02-28T10:03:52;98946.53;;;13.47;100.00
53270;BME280;39159;45.634;9.420;2024-02-28T10:06:20;98957.84;;;13.84;100.00
53270;BME280;39159;45.634;9.420;2024-02-28T10:08:45;98957.19;;;13.87;100.00
53270;BME280;39159;45.634;9.420;2024-02-28T10:11:20;98965.59;;;13.82;100.00
53270;BME280;39159;45.634;9.420;2024-02-28T10:13:45;98966.00;;;14.02;100.00
53270;BME280;39159;45.634;9.420;2024-02-28T10:16:11;98971.59;;;13.76;100.00
53270;BME280;39159;45.634;9.420;2024-02-28T10:18:36;98972.63;;;13.54;100.00
53270;BME280;39159;45.634;9.420;2024-02-28T10:21:02;98973.28;;;13.51;100.00
53270;BME280;39159;45.634;9.420;2024-02-28T10:23:28;98977.19;;;13.41;100.00
53270;BME280;39159;45.634;9.420;2024-02-28T10:25:53;98982.69;;;13.41;100.00
53270;BME280;39159;45.634;9.420;2024-02-28T10:28:19;98982.09;;;13.65;100.00
53270;BME280;39159;45.634;9.420;2024-02-28T10:30:44;98979.25;;;14.00;100.00
53270;BME280;39159;45.634;9.420;2024-02-28T10:33:13;98982.19;;;14.54;100.00
53270;BME280;39159;45.634;9.420;2024-02-28T10:35:40;98983.09;;;14.88;100.00
53270;BME280;39159;45.634;9.420;2024-02-28T10:38:06;98978.00;;;15.32;100.00
53270;BME280;39159;45.634;9.420;2024-02-28T10:40:31;98981.53;;;15.66;100.00
53270;BME280;39159;45.634;9.420;2024-02-28T10:42:57;98985.97;;;15.58;100.00
53270;BME280;39159;45.634;9.420;2024-02-28T10:45:24;98986.09;;;15.62;100.00
53270;BME280;39159;45.634;9.420;2024-02-28T10:47:51;98980.88;;;15.36;100.00
53270;BME280;39159;45.634;9.420;2024-02-28T10:50:17;98985.50;;;15.23;100.00
53270;BME280;39159;45.634;9.420;2024-02-28T10:52:46;98982.97;;;15.18;100.00
53270;BME280;39159;45.634;9.420;2024-02-28T10:55:20;98989.25;;;15.06;100.00
53270;BME280;39159;45.634;9.420;2024-02-28T10:57:48;98985.28;;;14.74;100.00
53270;BME280;39159;45.634;9.420;2024-02-28T11:00:18;98984.50;;;14.73;100.00
53270;BME280;39159;45.634;9.420;2024-02-28T11:02:43;98996.06;;;14.58;100.00
53270;BME280;39159;45.634;9.420;2024-02-28T11:05:09;98994.13;;;14.58;100.00
53270;BME280;39159;45.634;9.420;2024-02-28T11:07:35;98999.28;;;14.60;100.00
53270;BME280;39159;45.634;9.420;2024-02-28T11:10:05;98999.75;;;14.62;100.00
53270;BME280;39159;45.634;9.420;2024-02-28T11:12:31;98993.41;;;14.70;100.00
53270;BME280;39159;45.634;9.420;2024-02-28T11:17:26;99000.16;;;14.73;100.00
53270;BME280;39159;45.634;9.420;2024-02-28T11:19:53;98996.75;;;14.76;100.00
53270;BME280;39159;45.634;9.420;2024-02-28T11:22:18;98997.16;;;14.86;100.00
53270;BME280;39159;45.634;9.420;2024-02-28T11:24:45;98993.47;;;14.82;100.00
53270;BME280;39159;45.634;9.420;2024-02-28T11:27:13;98995.19;;;14.87;100.00
53270;BME280;39159;45.634;9.420;2024-02-28T11:29:39;98993.41;;;14.91;100.00
53270;BME280;39159;45.634;9.420;2024-02-28T11:32:06;98997.78;;;14.92;100.00
53270;BME280;39159;45.634;9.420;2024-02-28T11:34:31;98998.69;;;14.96;100.00
53270;BME280;39159;45.634;9.420;2024-02-28T11:36:57;98997.56;;;14.97;100.00
53270;BME280;39159;45.634;9.420;2024-02-28T11:39:23;98993.31;;;15.00;100.00
53270;BME280;39159;45.634;9.420;2024-02-28T11:41:52;98995.75;;;15.01;100.00
53270;BME280;39159;45.634;9.420;2024-02-28T11:44:19;98992.72;;;15.15;100.00
53270;BME280;39159;45.634;9.420;2024-02-28T11:46:45;98980.53;;;15.37;100.00
53270;BME280;39159;45.634;9.420;2024-02-28T11:49:12;98984.25;;;15.53;100.00
53270;BME280;39159;45.634;9.420;2024-02-28T11:51:42;98979.34;;;15.59;100.00
53270;BME280;39159;45.634;9.420;2024-02-28T11:54:08;98977.63;;;15.67;100.00
53270;BME280;39159;45.634;9.420;2024-02-28T11:56:36;98982.00;;;15.68;100.00
53270;BME280;39159;45.634;9.420;2024-02-28T11:59:02;98973.81;;;15.92;100.00
53270;BME280;39159;45.634;9.420;2024-02-28T12:01:55;98974.59;;;16.30;100.00
53270;BME280;39159;45.634;9.420;2024-02-28T12:04:24;98975.84;;;16.57;100.00
53270;BME280;39159;45.634;9.420;2024-02-28T12:06:49;98967.41;;;16.90;100.00
53270;BME280;39159;45.634;9.420;2024-02-28T12:09:14;98969.44;;;17.22;100.00
53270;BME280;39159;45.634;9.420;2024-02-28T12:11:40;98970.97;;;17.19;100.00
53270;BME280;39159;45.634;9.420;2024-02-28T12:14:09;98969.91;;;16.95;93.17
53270;BME280;39159;45.634;9.420;2024-02-28T12:16:36;98971.19;;;16.86;92.07
53270;BME280;39159;45.634;9.420;2024-02-28T12:19:06;98971.28;;;16.89;100.00
53270;BME280;39159;45.634;9.420;2024-02-28T12:21:33;98958.88;;;17.24;100.00
53270;BME280;39159;45.634;9.420;2024-02-28T12:23:58;98964.53;;;17.15;93.86
53270;BME280;39159;45.634;9.420;2024-02-28T12:26:24;98953.69;;;16.94;91.26
53270;BME280;39159;45.634;9.420;2024-02-28T12:28:49;98953.63;;;16.90;93.18
53270;BME280;39159;45.634;9.420;2024-02-28T12:31:14;98952.69;;;16.98;91.31
53270;BME280;39159;45.634;9.420;2024-02-28T12:33:40;98944.34;;;17.11;89.26
53270;BME280;39159;45.634;9.420;2024-02-28T12:36:08;98949.41;;;17.09;83.09
53270;BME280;39159;45.634;9.420;2024-02-28T12:38:33;98948.31;;;17.42;85.23
53270;BME280;39159;45.634;9.420;2024-02-28T12:40:59;98935.44;;;17.46;86.87
53270;BME280;39159;45.634;9.420;2024-02-28T12:43:24;98930.75;;;17.34;87.35
53270;BME280;39159;45.634;9.420;2024-02-28T12:45:58;98926.38;;;17.61;89.86
53270;BME280;39159;45.634;9.420;2024-02-28T12:48:24;98923.59;;;17.61;83.17
53270;BME280;39159;45.634;9.420;2024-02-28T12:50:49;98918.25;;;17.36;78.51
53270;BME280;39159;45.634;9.420;2024-02-28T12:53:15;98920.41;;;17.75;80.11